This is the latest recevied weather packets stored in our database for station/object OH6GPB-4. If no packets are shown the sender has not sent any weather packets the latest 10 day(s).
| Time | Temp. | Humidity | Pressure | Rain* | Wind** | Luminosity | Snow |
|---|---|---|---|---|---|---|---|
| 1777573055 | 11.67° C | 59% | 1017.6 hPa | 0 mm | - | 14 W/m² | - |
| 1777571249 | 13.33° C | 55% | 1017.5 hPa | 0 mm | - | 65 W/m² | - |
| 1777569453 | 13.89° C | 54% | 1017.4 hPa | 0 mm | - | 113 W/m² | - |
| 1777567644 | 14.44° C | 51% | 1017.4 hPa | 0 mm | - | 167 W/m² | - |
| 1777565842 | 14.44° C | 51% | 1017.4 hPa | 0 mm | - | 227 W/m² | - |
| 1777564054 | 13.89° C | 53% | 1017.4 hPa | 0 mm | - | 209 W/m² | - |
| 1777562251 | 13.89° C | 53% | 1017.5 hPa | 0 mm | - | 58 W/m² | - |
| 1777560446 | 13.89° C | 53% | 1017.8 hPa | 0 mm | - | 243 W/m² | - |
| 1777558654 | 13.33° C | 56% | 1017.8 hPa | 0 mm | - | 146 W/m² | - |
| 1777556845 | 12.78° C | 56% | 1017.9 hPa | 0 mm | - | 171 W/m² | - |
| 1777555058 | 13.89° C | 54% | 1017.8 hPa | 0 mm | - | 455 W/m² | - |
| 1777553243 | 13.89° C | 54% | 1017.9 hPa | 0 mm | - | 540 W/m² | - |
| 1777551447 | 13.33° C | 55% | 1017.9 hPa | 0 mm | - | 506 W/m² | - |
| 1777549653 | 12.22° C | 59% | 1017.9 hPa | 0 mm | - | 311 W/m² | - |
| 1777547851 | 11.67° C | 61% | 1017.9 hPa | 0 mm | - | 411 W/m² | - |
| 1777546047 | 11.67° C | 61% | 1017.8 hPa | 0 mm | - | 438 W/m² | - |
| 1777544244 | 12.22° C | 58% | 1017.8 hPa | 0 mm | - | 480 W/m² | - |
| 1777542460 | 11.67° C | 59% | 1017.9 hPa | 0 mm | - | 585 W/m² | - |
| 1777540653 | 11.11° C | 61% | 1017.9 hPa | 0 mm | - | 573 W/m² | - |
| 1777538850 | 10.56° C | 63% | 1017.7 hPa | 0 mm | - | 411 W/m² | - |
| 1777537043 | 10° C | 67% | 1017.8 hPa | 0 mm | - | 457 W/m² | - |
| 1777535258 | 8.89° C | 69% | 1017.8 hPa | 0 mm | - | 357 W/m² | - |
| 1777533445 | 8.33° C | 71% | 1017.4 hPa | 0 mm | - | 279 W/m² | - |
| 1777531654 | 8.33° C | 70% | 1017.4 hPa | 0 mm | - | 241 W/m² | - |
| 1777529845 | 8.33° C | 72% | 1017 hPa | 0 mm | - | 483 W/m² | - |
* Rain latest hour (hover to see other rain measurements)
** Current wind speed in m/s (hover to see current wind gust speed)